AirNav   Air Wisconsin pilot careers
 
 925 users online  

A32 Butte Valley Airport
Dorris, California, USA

GOING TO DORRIS?


FAA INFORMATION EFFECTIVE 29 MARCH 2018

Location

FAA Identifier: A32
Lat/Long: 41-53-14.1000N / 121-58-32.1000W
41-53.235000N / 121-58.535000W
41.8872500 / -121.9755833
(estimated)
Elevation: 4243.1 ft. / 1293.3 m (surveyed)
Variation: 18E (1985)
From city: 5 miles SW of DORRIS, CA
Time zone: UTC -7 (UTC -8 during Standard Time)
Zip code: 96023

Airport Operations

Airport use: Open to the public
Activation date: 05/1950
Control tower: no
ARTCC: SEATTLE CENTER
FSS: RANCHO MURIETA FLIGHT SERVICE STATION
NOTAMs facility: RIU (NOTAM-D service available)
Attendance: UNATNDD
Pattern altitude: 5043.1 ft. MSL
Wind indicator: lighted
Segmented circle: yes
Lights: ACTVT MIRL RY 16/34 KEY 122.9; 5 TIMES.
Beacon: white-green (lighted land airport)
Operates sunset to sunrise.
Taxiway lights: TAXIWAY LIGHTS AT ENTRANCE TO TWYS ONLY.

Airport Communications

CTAF: 122.9
WX ASOS at LMT (19 nm NE): PHONE 541-883-8127

Nearby radio navigation aids

VOR radial/distance  VOR name  Freq  Var
LMTr198/19.4KLAMATH FALLS VORTAC115.9017E

 
NDB name  Hdg/Dist  Freq  Var  ID
MONTAGUE052/24.640415EMOG -- --- --.

Airport Services

Parking: tiedowns
Airframe service: NONE
Powerplant service: NONE
Bottled oxygen: NONE
Bulk oxygen: NONE

Runway Information

Runway 16/34

Dimensions: 4300 x 60 ft. / 1311 x 18 m
Surface: asphalt, in fair condition
Weight bearing capacity: 
Single wheel: 30.0
Runway edge lights: medium intensity
RUNWAY 16  RUNWAY 34
Latitude: 41-53.588195N41-52.880387N
Longitude: 121-58.536410W121-58.534993W
Elevation: 4243.1 ft.4242.8 ft.
Traffic pattern: leftleft
Runway heading: 161 magnetic, 179 true341 magnetic, 359 true
Markings: basic, in fair conditionbasic, in fair condition
Runway end identifier lights: nono
Touchdown point: yes, no lightsyes, no lights
Obstructions: 15 ft. road, 520 ft. from runway, 21:1 slope to clear5 ft. fence, 350 ft. from runway, 28:1 slope to clear

Airport Ownership and Management from official FAA records

Ownership: Publicly-owned
Owner: COUNTY OF SISKIYOU
190 GREENHORN ROAD
YREKA, CA 96097
Phone (530) 842-8220
Manager: MELISSA CUMMINS
190 GREENHORN ROAD
YREKA, CA 96097
Phone (530) 842-8220
DIRECTOR OF AIRPORTS OFFICE IN YREKA.

Airport Operational Statistics

Aircraft based on the field: 1
Single engine airplanes: 1
    
Aircraft operations: avg 39/week *
98% transient general aviation
2% local general aviation
* for 12-month period ending 31 December 2016

Additional Remarks

APRT RESTRICTED BY APRT OWNER TO ACFT WITH MAX CERT TKOF WEIGHT OF 12,500 LBS OR LESS; CALL APRT MGR 530-842-8295 FOR MORE INFO.

Instrument Procedures

There are no published instrument procedures at A32.

Some nearby airports with instrument procedures:

KLMT - Crater Lake-Klamath Regional Airport (19 nm NE)
KSIY - Siskiyou County Airport (23 nm W)
O46 - Weed Airport (32 nm SW)
KMFR - Rogue Valley International - Medford Airport (49 nm NW)
KAAT - Alturas Municipal Airport (68 nm E)
 
Loc | Ops | Rwys | IFR | FBO | Links
Com | Nav | Svcs | Stats | Notes

AirNav Hotels Sweepstakes
 
Area around A32 (Butte Valley Airport)
 
Road maps at: MapQuest Bing Google
 
Aerial photo
WARNING: Photo may not be current or correct
Aerial photo of A32 (Butte Valley Airport)
Do you have a better or more recent aerial photo of Butte Valley Airport that you would like to share? If so, please send us your photo.

 
Sectional chart

 
Airport distance calculator
Flying to Butte Valley Airport? Find the distance to fly.

From to A32

Sunrise and sunset
Times for 25-Apr-2018
 Local
(UTC-7)
 Zulu
(UTC)
Morning civil twilight05:4312:43
Sunrise06:1313:13
Sunset19:5902:59
Evening civil twilight20:2803:28

Current date and time
Zulu (UTC)  26-Apr-2018 01:39:57
Local (UTC-7)  25-Apr-2018 18:39:57
 
METAR
KLMT 
20nm NE 
260053Z 00000KT 10SM CLR 26/M06 A3007 RMK AO2 SLP157 T02561061 $
KSIY 
23nm W 
260053Z AUTO VRB03KT 10SM CLR 29/M08 A2999 RMK AO2 SLP147 T02941083
S03 
36nm NW 
SuperAWOS
260135Z AUTO 26004KT 10SM 28/11 A2997
KMHS 
38nm SW 
260056Z AUTO 20003KT 10SM CLR 25/M03 A3005 RMK AO2 SLP176 T02501028
TAF
KLMT 
20nm NE 
251720Z 2518/2618 VRB03KT P6SM SKC FM261500 VRB03KT P6SM BKN200
NOTAMs
Click for the latest NOTAMs
NOTAMs are issued by the DoD/FAA and will open in a separate window not controlled by AirNav.

 

 
 

Would you like to see your business listed on this page?

 If your business provides an interesting product or service to pilots, flight crews, aircraft, or users of the Butte Valley Airport, you should consider listing it here.  To start the listing process, click on the button below
 
Add a business
 

Other Pages about Butte Valley Airport

www.co.siskiyou.ca.us/...
 
Update a link
 
Copyright © AirNav, LLC. All rights reserved. Privacy Policy  Contact